Brazos Point, Texas
Current Conditions -  °F | °C
As of 9:55 PM on Sunday 23 Nov 2014 (Local Time) from KCPT Reporting Station
Clear Clear  
Wind Chill: 52°   Ceiling: Unl
Heat Index: 52°   Visibility: 10mi
Dew Point: 39°   Wind: 16mph
Humidity: 62%   Direction: 320°NW
Pressure: 29.81"   Gusts: 24mph
Location:  32.1115°N, 97.5857°W
Report Text: KCPT 240355Z AUTO 32014G21KT 10SM CLR 11/04 A2981 RMK AO2
Loading
Personal Weather Stations






























Interactive Weather Map New forecast layout! Learn more

10-Day Weather Forecast

Advertisements
Track Severe Weather on mobile